createdAt,value
2022-11-17T00:02:02.518Z,99991.97
2022-11-17T00:04:29.218Z,99991.13
2022-11-17T00:07:02.803Z,100014.66
2022-11-17T00:09:29.611Z,100003.31
2022-11-17T00:12:17.996Z,100004.19
2022-11-17T00:14:47.218Z,99982.44
2022-11-17T00:17:14.080Z,99993.75
2022-11-17T00:19:59.889Z,99993.75
2022-11-17T00:22:26.877Z,99991.13
2022-11-17T00:24:53.567Z,99992.88
2022-11-17T00:27:20.416Z,99990.25
2022-11-17T00:29:47.081Z,99985.91
2022-11-17T00:32:33.965Z,99993.72
2022-11-17T00:35:00.983Z,99997.22
2022-11-17T00:37:29.273Z,100003.31
2022-11-17T00:40:00.596Z,100001.59
2022-11-17T00:42:27.854Z,99996.38
2022-11-17T00:44:54.904Z,99991.16
2022-11-17T00:47:21.508Z,99994.63
2022-11-17T00:49:48.133Z,99989.41
2022-11-17T00:52:16.824Z,99984.19
2022-11-17T00:54:43.538Z,99989.44
2022-11-17T00:57:10.283Z,99986.81
2022-11-17T00:59:37.081Z,99978.97
2022-11-17T01:02:03.660Z,99979.84
2022-11-17T01:04:30.303Z,99979.84
2022-11-17T01:06:56.959Z,99983.34
2022-11-17T01:09:23.898Z,99991.19
2022-11-17T01:11:52.120Z,99991.19
2022-11-17T01:14:23.811Z,99990.31
2022-11-17T01:16:50.620Z,99981.59
2022-11-17T01:19:17.815Z,99983.34
2022-11-17T01:21:44.913Z,99978.97
2022-11-17T01:24:12.702Z,99981.63
2022-11-17T01:26:40.360Z,99979.88
2022-11-17T01:29:07.956Z,99972.91
2022-11-17T01:31:38.086Z,99982.47
2022-11-17T01:34:04.874Z,99965.09
2022-11-17T01:36:55.249Z,99979.00
2022-11-17T01:39:25.327Z,99968.56
2022-11-17T01:41:52.167Z,99952.03
2022-11-17T01:44:49.120Z,99963.34
2022-11-17T01:47:26.370Z,99951.19
2022-11-17T01:49:56.810Z,99960.72
2022-11-17T01:52:24.006Z,99945.97
2022-11-17T01:54:51.258Z,99938.97
2022-11-17T01:57:32.579Z,99928.56
2022-11-17T02:00:06.023Z,99932.03
2022-11-17T02:02:33.990Z,99930.31
2022-11-17T02:05:03.456Z,99943.34
2022-11-17T02:07:32.773Z,99935.53
2022-11-17T02:09:59.737Z,99927.69
2022-11-17T02:12:27.134Z,99929.44
2022-11-17T02:14:54.653Z,99945.06
2022-11-17T02:17:23.825Z,99935.50
2022-11-17T02:20:14.628Z,99932.91
2022-11-17T02:23:00.096Z,99924.22
2022-11-17T02:25:41.916Z,99928.56
2022-11-17T02:28:20.353Z,99927.72
2022-11-17T02:31:20.888Z,99922.47
2022-11-17T02:33:55.721Z,99915.53
2022-11-17T02:36:32.062Z,99919.03
2022-11-17T02:39:12.491Z,99922.47
2022-11-17T02:41:55.725Z,99906.81
2022-11-17T02:44:36.700Z,99898.13
2022-11-17T02:47:08.801Z,99901.63
2022-11-17T02:49:37.940Z,99905.09
2022-11-17T02:52:05.999Z,99902.47
2022-11-17T02:54:33.313Z,99904.25
2022-11-17T02:57:00.112Z,99907.69
2022-11-17T02:59:34.904Z,99903.38
2022-11-17T03:02:19.768Z,99911.19
2022-11-17T03:05:15.549Z,99902.50
2022-11-17T03:08:07.909Z,99894.69
2022-11-17T03:10:44.417Z,99899.88
2022-11-17T03:13:18.656Z,99905.97
2022-11-17T03:15:56.304Z,99921.59
2022-11-17T03:18:29.788Z,99901.63
2022-11-17T03:21:10.878Z,99895.53
2022-11-17T03:24:04.069Z,99911.16
2022-11-17T03:26:39.868Z,99908.56
2022-11-17T03:29:10.884Z,99908.59
2022-11-17T03:31:37.905Z,99907.72
2022-11-17T03:34:07.664Z,99902.47
2022-11-17T03:36:37.268Z,99903.38
2022-11-17T03:39:07.524Z,99899.00
2022-11-17T03:41:39.025Z,99892.06
2022-11-17T03:44:06.679Z,99893.78
2022-11-17T03:46:35.379Z,99886.88
2022-11-17T03:49:10.836Z,99890.34
2022-11-17T03:51:38.367Z,99885.97
2022-11-17T03:54:05.739Z,99885.13
2022-11-17T03:56:55.670Z,99881.63
2022-11-17T03:59:25.548Z,99884.25
2022-11-17T04:01:52.351Z,99880.75
2022-11-17T04:04:21.100Z,99870.34
2022-11-17T04:06:49.229Z,99886.88
2022-11-17T04:09:21.342Z,99875.56
2022-11-17T04:12:09.563Z,99868.59
2022-11-17T04:14:54.873Z,99869.47
2022-11-17T04:17:21.581Z,99854.69
2022-11-17T04:19:48.742Z,99859.03
2022-11-17T04:22:15.362Z,99852.09
2022-11-17T04:24:41.948Z,99846.88
2022-11-17T04:27:31.900Z,99855.56
2022-11-17T04:29:58.864Z,99852.06
2022-11-17T04:32:25.605Z,99841.66
2022-11-17T04:34:52.257Z,99848.59
2022-11-17T04:37:18.928Z,99848.63
2022-11-17T04:39:46.160Z,99844.28
2022-11-17T04:42:13.086Z,99845.13
2022-11-17T04:44:43.001Z,99839.91
2022-11-17T04:47:09.697Z,99854.69
2022-11-17T04:49:36.287Z,99853.81
2022-11-17T04:52:02.950Z,99852.94
2022-11-17T04:54:29.632Z,99856.41
2022-11-17T04:56:56.845Z,99851.22
2022-11-17T04:59:23.905Z,99847.72
2022-11-17T05:01:50.994Z,99841.63
2022-11-17T05:04:40.194Z,99842.50
2022-11-17T05:07:10.879Z,99838.16
2022-11-17T05:09:38.009Z,99839.91
2022-11-17T05:12:23.216Z,99833.78
2022-11-17T05:14:50.563Z,99835.56
2022-11-17T05:17:17.775Z,99839.00
2022-11-17T05:19:46.256Z,99835.53
2022-11-17T05:22:34.666Z,99838.13
2022-11-17T05:25:01.588Z,99832.94
2022-11-17T05:27:28.421Z,99818.19
2022-11-17T05:29:55.040Z,99822.50
2022-11-17T05:32:21.697Z,99823.38
2022-11-17T05:34:48.427Z,99826.84
2022-11-17T05:37:15.244Z,99834.63
2022-11-17T05:39:41.859Z,99825.97
2022-11-17T05:42:08.594Z,99820.75
2022-11-17T05:44:35.243Z,99827.69
2022-11-17T05:47:01.858Z,99825.09
2022-11-17T05:49:28.455Z,99826.84
2022-11-17T05:51:55.082Z,99822.53
2022-11-17T05:54:21.695Z,99827.72
2022-11-17T05:56:55.414Z,99821.59
2022-11-17T05:59:28.255Z,99813.75
2022-11-17T06:02:06.345Z,99816.38
2022-11-17T06:04:33.239Z,99814.63
2022-11-17T06:07:00.870Z,99802.44
2022-11-17T06:09:29.266Z,99805.94
2022-11-17T06:11:58.623Z,99805.03
2022-11-17T06:14:29.152Z,99806.75
2022-11-17T06:16:59.138Z,99804.19
2022-11-17T06:19:29.700Z,99800.66
2022-11-17T06:22:11.725Z,99803.28
2022-11-17T06:24:40.736Z,99796.34
2022-11-17T06:27:07.535Z,99794.59
2022-11-17T06:29:38.208Z,99796.34
2022-11-17T06:32:07.636Z,99779.81
2022-11-17T06:34:35.057Z,99787.66
2022-11-17T06:37:01.686Z,99786.78
2022-11-17T06:39:28.280Z,99790.28
2022-11-17T06:41:54.974Z,99786.75
2022-11-17T06:44:21.570Z,99791.13
2022-11-17T06:46:49.281Z,99782.41
2022-11-17T06:49:16.510Z,99778.94
2022-11-17T06:51:45.329Z,99781.50
2022-11-17T06:54:14.467Z,99785.88
2022-11-17T06:56:41.400Z,99788.47
2022-11-17T06:59:08.013Z,99777.22
2022-11-17T07:01:34.658Z,99778.97
2022-11-17T07:04:01.248Z,99778.09
2022-11-17T07:06:27.863Z,99789.38
2022-11-17T07:08:54.465Z,99785.91
2022-11-17T07:11:21.071Z,99784.19
2022-11-17T07:13:47.733Z,99788.50
2022-11-17T07:16:22.839Z,99780.66
2022-11-17T07:18:50.070Z,99778.94
2022-11-17T07:21:17.988Z,99789.38
2022-11-17T07:23:47.584Z,99793.69
2022-11-17T07:26:14.411Z,99789.31
2022-11-17T07:28:41.312Z,99786.69
2022-11-17T07:31:08.977Z,99781.47
2022-11-17T07:33:36.454Z,99778.06
2022-11-17T07:36:05.319Z,99781.56
2022-11-17T07:38:36.019Z,99760.63
2022-11-17T07:41:03.491Z,99758.91
2022-11-17T07:43:30.211Z,99756.28
2022-11-17T07:45:57.235Z,99760.59
2022-11-17T07:48:23.940Z,99771.00
2022-11-17T07:50:50.605Z,99770.16
2022-11-17T07:53:17.255Z,99763.22
2022-11-17T07:55:43.906Z,99764.97
2022-11-17T07:58:10.536Z,99764.09
2022-11-17T08:00:37.190Z,99764.97
2022-11-17T08:03:04.778Z,99770.19
2022-11-17T08:05:37.050Z,99752.78
2022-11-17T08:08:09.401Z,99751.91
2022-11-17T08:10:36.064Z,99751.06
2022-11-17T08:13:02.794Z,99769.31
2022-11-17T08:15:29.974Z,99770.19
2022-11-17T08:17:58.272Z,99774.53
2022-11-17T08:20:25.967Z,99765.88
2022-11-17T08:22:53.544Z,99774.50
2022-11-17T08:25:21.692Z,99775.41
2022-11-17T08:27:52.191Z,99774.50
2022-11-17T08:30:20.518Z,99776.25
2022-11-17T08:32:49.243Z,99784.09
2022-11-17T08:35:17.136Z,99764.97
2022-11-17T08:37:43.771Z,99770.19
2022-11-17T08:40:11.715Z,99766.75
2022-11-17T08:42:38.699Z,99774.53
2022-11-17T08:45:06.547Z,99775.41
2022-11-17T08:47:33.190Z,99772.81
2022-11-17T08:50:00.000Z,99764.09
2022-11-17T08:52:29.635Z,99769.25
2022-11-17T08:54:56.325Z,99775.44
2022-11-17T08:57:23.584Z,99768.50
2022-11-17T08:59:50.862Z,99766.66
2022-11-17T09:02:17.790Z,99778.84
2022-11-17T09:04:46.100Z,99771.09
2022-11-17T09:07:12.851Z,99767.63
2022-11-17T09:09:39.652Z,99773.66
2022-11-17T09:12:06.457Z,99762.31
2022-11-17T09:14:33.099Z,99764.97
2022-11-17T09:16:59.713Z,99761.50
2022-11-17T09:19:26.839Z,99763.28
2022-11-17T09:21:53.460Z,99756.31
2022-11-17T09:24:20.120Z,99758.00
2022-11-17T09:26:46.723Z,99751.91
2022-11-17T09:29:13.403Z,99753.72
2022-11-17T09:31:40.051Z,99751.09
2022-11-17T09:34:06.872Z,99751.09
2022-11-17T09:36:34.957Z,99752.84
2022-11-17T09:39:01.642Z,99755.41
2022-11-17T09:41:36.180Z,99745.81
2022-11-17T09:44:25.665Z,99751.94
2022-11-17T09:46:57.713Z,99775.34
2022-11-17T09:49:33.818Z,99764.06
2022-11-17T09:52:10.848Z,99766.63
2022-11-17T09:54:43.640Z,99762.31
2022-11-17T09:57:31.471Z,99777.09
2022-11-17T10:00:19.069Z,99777.19
2022-11-17T10:02:46.363Z,99768.44
2022-11-17T10:05:21.049Z,99766.66
2022-11-17T10:07:50.305Z,99762.31
2022-11-17T10:10:20.469Z,99764.06
2022-11-17T10:12:50.480Z,99761.44
2022-11-17T10:15:22.836Z,99763.16
2022-11-17T10:17:50.267Z,99758.81
2022-11-17T10:20:18.736Z,99754.50
2022-11-17T10:22:46.621Z,99752.78
2022-11-17T10:25:36.968Z,99752.72
2022-11-17T10:28:04.522Z,99750.94
2022-11-17T10:30:31.352Z,99746.56
2022-11-17T10:32:59.613Z,99753.56
2022-11-17T10:35:30.753Z,99755.28
2022-11-17T10:38:17.165Z,99741.44
2022-11-17T10:40:43.633Z,99744.84
2022-11-17T10:43:13.261Z,99741.31
2022-11-17T10:45:48.134Z,99741.28
2022-11-17T10:48:34.698Z,99735.16
2022-11-17T10:51:02.028Z,99736.94
2022-11-17T10:53:45.801Z,99739.59
2022-11-17T10:56:16.361Z,99725.75
2022-11-17T10:59:01.343Z,99727.44
2022-11-17T11:01:33.761Z,99723.94
2022-11-17T11:04:01.062Z,99739.59
2022-11-17T11:06:29.679Z,99730.09
2022-11-17T11:08:59.956Z,99721.38
2022-11-17T11:11:45.085Z,99718.84
2022-11-17T11:14:16.038Z,99726.53
2022-11-17T11:16:48.380Z,99724.81
2022-11-17T11:19:17.049Z,99717.81
2022-11-17T11:21:55.614Z,99711.66
2022-11-17T11:24:39.082Z,99703.78
2022-11-17T11:27:11.781Z,99699.53
2022-11-17T11:30:01.680Z,99706.44
2022-11-17T11:32:37.430Z,99703.78
2022-11-17T11:35:25.834Z,99697.72
2022-11-17T11:38:01.494Z,99696.03
2022-11-17T11:40:42.843Z,99714.31
2022-11-17T11:43:20.934Z,99709.00
2022-11-17T11:46:02.287Z,99687.31
2022-11-17T11:48:33.895Z,99702.94
2022-11-17T11:51:18.841Z,99690.81
2022-11-17T11:53:52.685Z,99693.38
2022-11-17T11:56:26.691Z,99692.50
2022-11-17T11:58:59.398Z,99689.09
2022-11-17T12:01:26.593Z,99682.16
2022-11-17T12:04:11.818Z,99674.25
2022-11-17T12:06:56.031Z,99676.84
2022-11-17T12:09:41.730Z,99667.19
2022-11-17T12:12:20.647Z,99666.34
2022-11-17T12:15:07.477Z,99669.88
2022-11-17T12:17:34.151Z,99646.44
2022-11-17T12:20:38.646Z,99672.53
2022-11-17T12:23:38.629Z,99661.22
2022-11-17T12:26:05.344Z,99665.59
2022-11-17T12:28:35.818Z,99676.94
2022-11-17T12:31:10.395Z,99668.19
2022-11-17T12:33:52.439Z,99655.06
2022-11-17T12:36:30.910Z,99675.09
2022-11-17T12:38:59.568Z,99664.69
2022-11-17T12:41:47.913Z,99663.81
2022-11-17T12:44:45.622Z,99673.44
2022-11-17T12:47:22.662Z,99672.69
2022-11-17T12:50:10.255Z,99664.78
2022-11-17T12:52:56.124Z,99670.81
2022-11-17T12:55:28.700Z,99662.09
2022-11-17T12:57:59.389Z,99666.47
2022-11-17T13:00:27.719Z,99658.66
2022-11-17T13:02:59.988Z,99660.34
2022-11-17T13:05:28.213Z,99657.75
2022-11-17T13:08:19.238Z,99665.72
2022-11-17T13:10:45.917Z,99667.44
2022-11-17T13:13:23.692Z,99670.06
2022-11-17T13:15:52.434Z,99670.09
2022-11-17T13:18:28.515Z,99657.06
2022-11-17T13:20:55.128Z,99664.03
2022-11-17T13:23:24.291Z,99657.94
2022-11-17T13:25:51.426Z,99658.72
2022-11-17T13:28:31.700Z,99654.31
2022-11-17T13:31:01.665Z,99641.38
2022-11-17T13:33:28.958Z,99644.84
2022-11-17T13:36:27.167Z,99648.28
2022-11-17T13:38:57.256Z,99651.84
2022-11-17T13:41:24.987Z,99652.75
2022-11-17T13:43:52.694Z,99654.47
2022-11-17T13:46:19.657Z,99648.28
2022-11-17T13:48:47.876Z,99645.75
2022-11-17T13:51:35.119Z,99646.63
2022-11-17T13:54:07.009Z,99644.94
2022-11-17T13:56:53.144Z,99648.38
2022-11-17T13:59:28.142Z,99648.34
2022-11-17T14:02:16.491Z,99648.47
2022-11-17T14:05:14.410Z,99643.25
2022-11-17T14:07:42.263Z,99647.63
2022-11-17T14:10:31.441Z,99649.28
2022-11-17T14:13:01.283Z,99644.09
2022-11-17T14:15:30.147Z,99641.56
2022-11-17T14:17:58.965Z,99645.03
2022-11-17T14:20:25.705Z,99645.88
2022-11-17T14:23:16.129Z,99652.00
2022-11-17T14:25:44.962Z,99647.69
2022-11-17T14:28:20.718Z,99645.97
2022-11-17T14:30:48.213Z,99649.38
2022-11-17T14:33:14.941Z,99645.91
2022-11-17T14:35:42.873Z,99645.91
2022-11-17T14:38:11.067Z,99652.81
2022-11-17T14:40:37.776Z,99645.03
2022-11-17T14:43:04.657Z,99652.00
2022-11-17T14:45:35.207Z,99658.13
2022-11-17T14:48:02.843Z,99658.16
2022-11-17T14:50:29.490Z,99663.38
2022-11-17T14:52:56.097Z,99659.81
2022-11-17T14:55:22.792Z,99648.50
2022-11-17T14:57:49.382Z,99653.72
2022-11-17T15:00:20.528Z,99663.28
2022-11-17T15:02:47.959Z,99658.94
2022-11-17T15:05:14.764Z,99660.69
2022-11-17T15:07:42.342Z,99655.47
2022-11-17T15:10:09.445Z,99655.56
2022-11-17T15:12:37.047Z,99658.13
2022-11-17T15:15:05.151Z,99659.00
2022-11-17T15:17:32.097Z,99662.47
2022-11-17T15:19:58.771Z,99659.91
2022-11-17T15:22:25.391Z,99659.00
2022-11-17T15:24:52.106Z,99656.44
2022-11-17T15:27:18.709Z,99655.50
2022-11-17T15:29:45.412Z,99644.25
2022-11-17T15:32:12.670Z,99652.03
2022-11-17T15:34:39.476Z,99657.28
2022-11-17T15:37:06.139Z,99648.66
2022-11-17T15:39:32.781Z,99644.31
2022-11-17T15:41:59.583Z,99648.63
2022-11-17T15:44:26.439Z,99647.75
2022-11-17T15:46:53.117Z,99651.19
2022-11-17T15:49:19.924Z,99649.47
2022-11-17T15:51:46.686Z,99658.16
2022-11-17T15:54:19.624Z,99642.47
2022-11-17T15:56:46.493Z,99648.53
2022-11-17T15:59:14.019Z,99650.38
2022-11-17T16:01:41.307Z,99645.19
2022-11-17T16:04:10.226Z,99639.91
2022-11-17T16:06:41.348Z,99642.50
2022-11-17T16:09:09.072Z,99639.97
2022-11-17T16:11:36.338Z,99647.72
2022-11-17T16:14:03.649Z,99633.84
2022-11-17T16:16:32.356Z,99636.47
2022-11-17T16:18:58.989Z,99646.00
2022-11-17T16:21:25.666Z,99648.59
2022-11-17T16:23:54.781Z,99632.09
2022-11-17T16:26:22.774Z,99632.97
2022-11-17T16:28:49.784Z,99627.78
2022-11-17T16:31:17.781Z,99629.50
2022-11-17T16:33:53.028Z,99629.50
2022-11-17T16:36:21.059Z,99638.16
2022-11-17T16:39:00.865Z,99624.28
2022-11-17T16:41:33.483Z,99619.91
2022-11-17T16:44:00.882Z,99617.31
2022-11-17T16:46:30.117Z,99615.50
2022-11-17T16:48:57.647Z,99617.28
2022-11-17T16:51:25.024Z,99624.28
2022-11-17T16:54:00.850Z,99625.16
2022-11-17T16:56:27.560Z,99623.38
2022-11-17T16:58:54.874Z,99621.69
2022-11-17T17:01:27.199Z,99625.16
2022-11-17T17:03:58.392Z,99616.47
2022-11-17T17:06:25.466Z,99614.78
2022-11-17T17:08:56.986Z,99631.31
2022-11-17T17:11:23.845Z,99619.13
2022-11-17T17:13:50.698Z,99622.59
2022-11-17T17:16:19.312Z,99638.19
2022-11-17T17:18:46.130Z,99622.56
2022-11-17T17:21:18.458Z,99623.44
2022-11-17T17:23:45.682Z,99629.53
2022-11-17T17:26:18.240Z,99622.66
2022-11-17T17:28:46.133Z,99624.41
2022-11-17T17:31:19.630Z,99618.28
2022-11-17T17:33:48.008Z,99626.06
2022-11-17T17:36:22.994Z,99622.63
2022-11-17T17:38:55.543Z,99623.50
2022-11-17T17:41:24.813Z,99633.03
2022-11-17T17:44:05.636Z,99635.63
2022-11-17T17:46:35.398Z,99624.31
2022-11-17T17:49:02.355Z,99633.84
2022-11-17T17:51:29.717Z,99639.97
2022-11-17T17:53:58.731Z,99620.84
2022-11-17T17:56:25.585Z,99638.25
2022-11-17T17:58:54.580Z,99633.03
2022-11-17T18:01:29.024Z,99632.16
2022-11-17T18:04:07.334Z,99639.06
2022-11-17T18:06:37.950Z,99641.75
2022-11-17T18:09:06.237Z,99637.41
2022-11-17T18:11:33.279Z,99647.94
2022-11-17T18:14:01.169Z,99652.19
2022-11-17T18:16:30.432Z,99654.00
2022-11-17T18:19:02.340Z,99665.22
2022-11-17T18:21:29.750Z,99649.63
2022-11-17T18:23:57.370Z,99644.38
2022-11-17T18:26:26.067Z,99642.72
2022-11-17T18:28:57.522Z,99646.09
2022-11-17T18:31:27.004Z,99646.16
2022-11-17T18:33:55.269Z,99646.97
2022-11-17T18:36:21.996Z,99648.75
2022-11-17T18:38:49.081Z,99634.84
2022-11-17T18:41:17.064Z,99653.06
2022-11-17T18:43:43.912Z,99658.28
2022-11-17T18:46:15.708Z,99666.16
2022-11-17T18:48:44.108Z,99666.22
2022-11-17T18:51:21.025Z,99672.25
2022-11-17T18:53:49.248Z,99651.41
2022-11-17T18:56:18.410Z,99647.91
2022-11-17T18:58:45.179Z,99643.63
2022-11-17T19:01:15.974Z,99650.53
2022-11-17T19:03:44.610Z,99654.03
2022-11-17T19:06:12.655Z,99654.03
2022-11-17T19:08:39.457Z,99659.25
2022-11-17T19:11:07.174Z,99669.66
2022-11-17T19:13:36.494Z,99662.72
2022-11-17T19:16:26.754Z,99665.38
2022-11-17T19:18:55.101Z,99654.91
2022-11-17T19:21:25.904Z,99665.34
2022-11-17T19:23:53.731Z,99659.28
2022-11-17T19:26:28.172Z,99670.56
2022-11-17T19:28:59.484Z,99669.72
2022-11-17T19:31:26.640Z,99667.97
2022-11-17T19:33:53.633Z,99660.16
2022-11-17T19:36:22.750Z,99673.13
2022-11-17T19:38:51.031Z,99661.00
2022-11-17T19:41:20.048Z,99667.09
2022-11-17T19:43:46.868Z,99669.72
2022-11-17T19:46:16.345Z,99666.25
2022-11-17T19:48:43.995Z,99667.97
2022-11-17T19:51:20.473Z,99676.66
2022-11-17T19:53:48.581Z,99661.03
2022-11-17T19:56:16.445Z,99667.97
2022-11-17T19:58:43.485Z,99672.34
2022-11-17T20:01:21.532Z,99670.63
2022-11-17T20:03:50.634Z,99683.66
2022-11-17T20:06:21.396Z,99678.41
2022-11-17T20:08:48.577Z,99678.44
2022-11-17T20:11:26.560Z,99673.22
2022-11-17T20:13:54.422Z,99680.19
2022-11-17T20:16:24.701Z,99690.59
2022-11-17T20:18:57.023Z,99677.53
2022-11-17T20:21:28.710Z,99679.28
2022-11-17T20:23:55.908Z,99686.22
2022-11-17T20:26:27.768Z,99693.19
2022-11-17T20:28:55.211Z,99682.75
2022-11-17T20:31:26.450Z,99697.50
2022-11-17T20:33:56.487Z,99671.50
2022-11-17T20:36:24.357Z,99688.84
2022-11-17T20:38:59.048Z,99691.47
2022-11-17T20:41:25.766Z,99701.88
2022-11-17T20:43:58.440Z,99694.06
2022-11-17T20:46:25.644Z,99685.41
2022-11-17T20:48:52.553Z,99692.31
2022-11-17T20:51:21.945Z,99688.84
2022-11-17T20:53:49.645Z,99680.19
2022-11-17T20:56:16.863Z,99681.91
2022-11-17T20:58:44.025Z,99672.38
2022-11-17T21:01:15.819Z,99683.63
2022-11-17T21:03:42.987Z,99685.38
2022-11-17T21:06:10.353Z,99685.38
2022-11-17T21:08:40.779Z,99679.31
2022-11-17T21:11:32.490Z,99695.81
2022-11-17T21:13:59.397Z,99681.91
2022-11-17T21:16:26.267Z,99698.38
2022-11-17T21:18:53.271Z,99687.97
2022-11-17T21:21:20.223Z,99694.06
2022-11-17T21:23:47.050Z,99690.59
2022-11-17T21:26:17.679Z,99694.91
2022-11-17T21:28:47.780Z,99689.72
2022-11-17T21:31:23.780Z,99691.44
2022-11-17T21:33:53.692Z,99688.84
2022-11-17T21:36:22.030Z,99694.06
2022-11-17T21:38:49.232Z,99700.16
2022-11-17T21:41:19.581Z,99699.28
2022-11-17T21:43:47.723Z,99696.66
2022-11-17T21:46:16.856Z,99702.75
2022-11-17T21:48:44.314Z,99697.53
2022-11-17T21:51:18.480Z,99686.25
2022-11-17T21:53:48.575Z,99693.22
2022-11-17T21:56:15.363Z,99700.13
2022-11-17T21:58:43.836Z,99701.88
2022-11-17T22:01:12.624Z,99696.66
2022-11-17T22:03:42.738Z,99696.66
2022-11-17T22:06:11.583Z,99711.41
2022-11-17T22:08:40.800Z,99699.25
2022-11-17T22:11:10.060Z,99701.88
2022-11-17T22:13:37.373Z,99699.25
2022-11-17T22:16:12.646Z,99699.25
2022-11-17T22:18:40.284Z,99699.22
2022-11-17T22:21:08.365Z,99711.41
2022-11-17T22:23:35.041Z,99708.75
2022-11-17T22:26:06.445Z,99715.75
2022-11-17T22:28:33.636Z,99723.53
2022-11-17T22:31:05.360Z,99724.41
2022-11-17T22:33:32.843Z,99716.59
2022-11-17T22:36:00.213Z,99728.78
2022-11-17T22:38:31.059Z,99732.25
2022-11-17T22:41:01.977Z,99728.72
2022-11-17T22:43:29.206Z,99727.88
2022-11-17T22:45:56.763Z,99744.38
2022-11-17T22:48:24.107Z,99725.25
2022-11-17T22:50:50.954Z,99730.44
2022-11-17T22:53:17.820Z,99719.19
2022-11-17T22:55:47.576Z,99722.66
2022-11-17T22:58:15.931Z,99720.06
2022-11-17T23:00:43.939Z,99717.47
2022-11-17T23:03:11.356Z,99715.75
2022-11-17T23:05:38.245Z,99714.88
2022-11-17T23:08:09.672Z,99716.59
2022-11-17T23:10:37.736Z,99726.97
2022-11-17T23:13:04.764Z,99733.06
2022-11-17T23:15:32.590Z,99736.47
2022-11-17T23:17:59.892Z,99732.16
2022-11-17T23:20:28.061Z,99736.50
2022-11-17T23:22:54.961Z,99727.81
2022-11-17T23:25:22.503Z,99736.50
2022-11-17T23:27:49.226Z,99728.66
2022-11-17T23:30:16.290Z,99732.16
2022-11-17T23:32:44.143Z,99748.53
2022-11-17T23:35:10.917Z,99753.78
2022-11-17T23:37:38.135Z,99756.41
2022-11-17T23:40:05.428Z,99757.28
2022-11-17T23:42:33.063Z,99748.59
2022-11-17T23:45:00.699Z,99748.66
2022-11-17T23:47:27.318Z,99772.03
2022-11-17T23:49:54.399Z,99762.50
2022-11-17T23:52:22.786Z,99760.72
2022-11-17T23:54:49.580Z,99767.72
2022-11-17T23:57:19.482Z,99760.75
2022-11-17T23:59:49.224Z,99753.81
